sensor_id;sensor_type;location;lat;lon;timestamp;temperature;humidity
21676;DHT22;10999;51.332;9.458;2023-03-14T00:00:22;9.60;95.10
21676;DHT22;10999;51.332;9.458;2023-03-14T00:02:53;9.50;95.30
21676;DHT22;10999;51.332;9.458;2023-03-14T00:05:20;9.50;95.30
21676;DHT22;10999;51.332;9.458;2023-03-14T00:07:47;9.40;95.30
21676;DHT22;10999;51.332;9.458;2023-03-14T00:10:14;9.40;95.50
21676;DHT22;10999;51.332;9.458;2023-03-14T00:12:41;9.40;96.10
21676;DHT22;10999;51.332;9.458;2023-03-14T00:15:09;9.40;96.00
21676;DHT22;10999;51.332;9.458;2023-03-14T00:17:36;9.50;95.60
21676;DHT22;10999;51.332;9.458;2023-03-14T00:20:06;9.50;95.30
21676;DHT22;10999;51.332;9.458;2023-03-14T00:22:41;9.50;95.00
21676;DHT22;10999;51.332;9.458;2023-03-14T00:25:09;9.50;95.00
21676;DHT22;10999;51.332;9.458;2023-03-14T00:27:36;9.50;95.00
21676;DHT22;10999;51.332;9.458;2023-03-14T00:30:04;9.50;95.10
21676;DHT22;10999;51.332;9.458;2023-03-14T00:32:31;9.50;94.90
21676;DHT22;10999;51.332;9.458;2023-03-14T00:34:58;9.60;94.50
21676;DHT22;10999;51.332;9.458;2023-03-14T00:37:24;9.60;94.30
21676;DHT22;10999;51.332;9.458;2023-03-14T00:39:51;9.60;93.80
21676;DHT22;10999;51.332;9.458;2023-03-14T00:42:18;9.60;93.70
21676;DHT22;10999;51.332;9.458;2023-03-14T00:44:45;9.60;93.30
21676;DHT22;10999;51.332;9.458;2023-03-14T00:47:12;9.70;93.10
21676;DHT22;10999;51.332;9.458;2023-03-14T00:49:38;9.70;92.40
21676;DHT22;10999;51.332;9.458;2023-03-14T00:52:05;9.60;92.00
21676;DHT22;10999;51.332;9.458;2023-03-14T00:54:32;9.70;92.00
21676;DHT22;10999;51.332;9.458;2023-03-14T00:56:59;9.70;91.70
21676;DHT22;10999;51.332;9.458;2023-03-14T00:59:25;9.70;91.50
21676;DHT22;10999;51.332;9.458;2023-03-14T01:01:52;9.60;91.30
21676;DHT22;10999;51.332;9.458;2023-03-14T01:04:19;9.70;90.80
21676;DHT22;10999;51.332;9.458;2023-03-14T01:06:45;9.70;91.00
21676;DHT22;10999;51.332;9.458;2023-03-14T01:09:12;9.70;91.10
21676;DHT22;10999;51.332;9.458;2023-03-14T01:11:39;9.60;91.20
21676;DHT22;10999;51.332;9.458;2023-03-14T01:14:05;9.60;91.50
21676;DHT22;10999;51.332;9.458;2023-03-14T01:16:33;9.50;91.60
21676;DHT22;10999;51.332;9.458;2023-03-14T01:19:01;9.50;91.90
21676;DHT22;10999;51.332;9.458;2023-03-14T01:21:31;9.40;92.20
21676;DHT22;10999;51.332;9.458;2023-03-14T01:23:59;9.40;92.50
21676;DHT22;10999;51.332;9.458;2023-03-14T01:26:29;9.50;92.80
21676;DHT22;10999;51.332;9.458;2023-03-14T01:28:56;9.50;92.60
21676;DHT22;10999;51.332;9.458;2023-03-14T01:31:25;9.50;92.40
21676;DHT22;10999;51.332;9.458;2023-03-14T01:33:52;9.50;92.40
21676;DHT22;10999;51.332;9.458;2023-03-14T01:36:19;9.60;92.30
21676;DHT22;10999;51.332;9.458;2023-03-14T01:38:45;9.60;92.20
21676;DHT22;10999;51.332;9.458;2023-03-14T01:41:16;9.60;92.00
21676;DHT22;10999;51.332;9.458;2023-03-14T01:43:43;9.50;91.80
21676;DHT22;10999;51.332;9.458;2023-03-14T01:46:34;9.50;91.70
21676;DHT22;10999;51.332;9.458;2023-03-14T01:52:11;9.50;91.80
21676;DHT22;10999;51.332;9.458;2023-03-14T01:54:46;9.50;92.00
21676;DHT22;10999;51.332;9.458;2023-03-14T01:57:18;9.50;92.10
21676;DHT22;10999;51.332;9.458;2023-03-14T02:00:07;9.50;92.20
21676;DHT22;10999;51.332;9.458;2023-03-14T02:02:40;9.50;92.20
21676;DHT22;10999;51.332;9.458;2023-03-14T02:05:09;9.40;92.30
21676;DHT22;10999;51.332;9.458;2023-03-14T02:07:43;9.50;92.50
21676;DHT22;10999;51.332;9.458;2023-03-14T02:10:14;9.50;92.60
21676;DHT22;10999;51.332;9.458;2023-03-14T02:12:42;9.40;92.40
21676;DHT22;10999;51.332;9.458;2023-03-14T02:15:10;9.40;92.10
21676;DHT22;10999;51.332;9.458;2023-03-14T02:17:36;9.40;92.00
21676;DHT22;10999;51.332;9.458;2023-03-14T02:23:00;9.50;91.90
21676;DHT22;10999;51.332;9.458;2023-03-14T02:25:42;9.50;91.60
21676;DHT22;10999;51.332;9.458;2023-03-14T02:28:12;9.50;91.60
21676;DHT22;10999;51.332;9.458;2023-03-14T02:30:40;9.50;91.60
21676;DHT22;10999;51.332;9.458;2023-03-14T02:33:18;9.50;91.50
21676;DHT22;10999;51.332;9.458;2023-03-14T02:35:58;9.50;91.20
21676;DHT22;10999;51.332;9.458;2023-03-14T02:38:31;9.60;91.00
21676;DHT22;10999;51.332;9.458;2023-03-14T02:40:59;9.50;90.60
21676;DHT22;10999;51.332;9.458;2023-03-14T02:43:26;9.60;90.50
21676;DHT22;10999;51.332;9.458;2023-03-14T02:45:54;9.60;90.60
21676;DHT22;10999;51.332;9.458;2023-03-14T02:48:33;9.50;91.10
21676;DHT22;10999;51.332;9.458;2023-03-14T02:51:02;9.60;91.40
21676;DHT22;10999;51.332;9.458;2023-03-14T02:53:34;9.60;91.40
21676;DHT22;10999;51.332;9.458;2023-03-14T02:56:01;9.50;91.00
21676;DHT22;10999;51.332;9.458;2023-03-14T02:58:29;9.50;91.10
21676;DHT22;10999;51.332;9.458;2023-03-14T03:00:56;9.60;91.00
21676;DHT22;10999;51.332;9.458;2023-03-14T03:03:22;9.50;91.20
21676;DHT22;10999;51.332;9.458;2023-03-14T03:05:51;9.50;91.60
21676;DHT22;10999;51.332;9.458;2023-03-14T03:08:19;9.50;91.10
21676;DHT22;10999;51.332;9.458;2023-03-14T03:10:46;9.50;92.00
21676;DHT22;10999;51.332;9.458;2023-03-14T03:13:14;9.40;93.00
21676;DHT22;10999;51.332;9.458;2023-03-14T03:15:41;9.40;93.70
21676;DHT22;10999;51.332;9.458;2023-03-14T03:18:08;9.40;93.90
21676;DHT22;10999;51.332;9.458;2023-03-14T03:20:35;9.40;94.20
21676;DHT22;10999;51.332;9.458;2023-03-14T03:23:02;9.40;94.10
21676;DHT22;10999;51.332;9.458;2023-03-14T03:25:29;9.40;93.80
21676;DHT22;10999;51.332;9.458;2023-03-14T03:27:56;9.50;93.60
21676;DHT22;10999;51.332;9.458;2023-03-14T03:30:23;9.50;93.10
21676;DHT22;10999;51.332;9.458;2023-03-14T03:32:49;9.50;92.90
21676;DHT22;10999;51.332;9.458;2023-03-14T03:35:16;9.50;92.60
21676;DHT22;10999;51.332;9.458;2023-03-14T03:37:43;9.50;92.60
21676;DHT22;10999;51.332;9.458;2023-03-14T03:40:10;9.40;92.30
21676;DHT22;10999;51.332;9.458;2023-03-14T03:42:37;9.40;92.20
21676;DHT22;10999;51.332;9.458;2023-03-14T03:45:04;9.40;92.20
21676;DHT22;10999;51.332;9.458;2023-03-14T03:47:31;9.40;92.10
21676;DHT22;10999;51.332;9.458;2023-03-14T03:49:57;9.40;91.60
21676;DHT22;10999;51.332;9.458;2023-03-14T03:52:24;9.40;91.10
21676;DHT22;10999;51.332;9.458;2023-03-14T03:54:51;9.40;91.20
21676;DHT22;10999;51.332;9.458;2023-03-14T03:57:17;9.40;91.50
21676;DHT22;10999;51.332;9.458;2023-03-14T03:59:44;9.40;92.00
21676;DHT22;10999;51.332;9.458;2023-03-14T04:02:11;9.40;92.70
21676;DHT22;10999;51.332;9.458;2023-03-14T04:04:38;9.40;93.00
21676;DHT22;10999;51.332;9.458;2023-03-14T04:07:06;9.40;92.70
21676;DHT22;10999;51.332;9.458;2023-03-14T04:09:33;9.40;92.90
21676;DHT22;10999;51.332;9.458;2023-03-14T04:12:00;9.40;94.20
21676;DHT22;10999;51.332;9.458;2023-03-14T04:14:26;9.40;94.80
21676;DHT22;10999;51.332;9.458;2023-03-14T04:16:53;9.40;95.90
21676;DHT22;10999;51.332;9.458;2023-03-14T04:19:20;9.30;96.70
21676;DHT22;10999;51.332;9.458;2023-03-14T04:21:47;9.20;97.00
21676;DHT22;10999;51.332;9.458;2023-03-14T04:24:14;9.20;97.40
21676;DHT22;10999;51.332;9.458;2023-03-14T04:26:41;9.10;97.80
21676;DHT22;10999;51.332;9.458;2023-03-14T04:29:07;9.10;98.10
21676;DHT22;10999;51.332;9.458;2023-03-14T04:31:35;9.10;98.50
21676;DHT22;10999;51.332;9.458;2023-03-14T04:34:02;9.00;98.10
21676;DHT22;10999;51.332;9.458;2023-03-14T04:36:28;9.10;97.90
21676;DHT22;10999;51.332;9.458;2023-03-14T04:38:55;9.10;97.00
21676;DHT22;10999;51.332;9.458;2023-03-14T04:41:22;9.10;96.70
21676;DHT22;10999;51.332;9.458;2023-03-14T04:43:48;9.10;95.40
21676;DHT22;10999;51.332;9.458;2023-03-14T04:46:15;9.10;94.50
21676;DHT22;10999;51.332;9.458;2023-03-14T04:48:42;9.10;94.10
21676;DHT22;10999;51.332;9.458;2023-03-14T04:51:08;9.10;93.20
21676;DHT22;10999;51.332;9.458;2023-03-14T04:53:35;9.10;92.40
21676;DHT22;10999;51.332;9.458;2023-03-14T04:56:03;9.10;91.80
21676;DHT22;10999;51.332;9.458;2023-03-14T04:58:30;9.10;90.30
21676;DHT22;10999;51.332;9.458;2023-03-14T05:01:03;9.10;90.00
21676;DHT22;10999;51.332;9.458;2023-03-14T05:03:31;9.20;88.90
21676;DHT22;10999;51.332;9.458;2023-03-14T05:05:57;9.20;89.00
21676;DHT22;10999;51.332;9.458;2023-03-14T05:08:25;9.20;88.80
21676;DHT22;10999;51.332;9.458;2023-03-14T05:10:53;9.20;88.80
21676;DHT22;10999;51.332;9.458;2023-03-14T05:13:20;9.20;88.30
21676;DHT22;10999;51.332;9.458;2023-03-14T05:15:47;9.20;88.00
21676;DHT22;10999;51.332;9.458;2023-03-14T05:18:14;9.20;88.10
21676;DHT22;10999;51.332;9.458;2023-03-14T05:20:40;9.30;88.30
21676;DHT22;10999;51.332;9.458;2023-03-14T05:23:09;9.30;88.20
21676;DHT22;10999;51.332;9.458;2023-03-14T05:25:36;9.30;86.80
21676;DHT22;10999;51.332;9.458;2023-03-14T05:28:03;9.40;86.20
21676;DHT22;10999;51.332;9.458;2023-03-14T05:30:30;9.40;86.40
21676;DHT22;10999;51.332;9.458;2023-03-14T05:32:57;9.30;86.60
21676;DHT22;10999;51.332;9.458;2023-03-14T05:35:24;9.30;86.90
21676;DHT22;10999;51.332;9.458;2023-03-14T05:37:50;9.30;87.00
21676;DHT22;10999;51.332;9.458;2023-03-14T05:40:17;9.30;87.10
21676;DHT22;10999;51.332;9.458;2023-03-14T05:42:44;9.20;87.10
21676;DHT22;10999;51.332;9.458;2023-03-14T05:45:10;9.30;87.20
21676;DHT22;10999;51.332;9.458;2023-03-14T05:47:37;9.30;87.40
21676;DHT22;10999;51.332;9.458;2023-03-14T05:50:04;9.20;87.60
21676;DHT22;10999;51.332;9.458;2023-03-14T05:52:31;9.20;87.50
21676;DHT22;10999;51.332;9.458;2023-03-14T05:54:58;9.20;87.50
21676;DHT22;10999;51.332;9.458;2023-03-14T05:57:25;9.30;86.60
21676;DHT22;10999;51.332;9.458;2023-03-14T05:59:51;9.30;87.20
21676;DHT22;10999;51.332;9.458;2023-03-14T06:02:18;9.30;86.90
21676;DHT22;10999;51.332;9.458;2023-03-14T06:04:45;9.30;86.90
21676;DHT22;10999;51.332;9.458;2023-03-14T06:07:11;9.30;86.80
21676;DHT22;10999;51.332;9.458;2023-03-14T06:09:38;9.30;86.70
21676;DHT22;10999;51.332;9.458;2023-03-14T06:12:06;9.20;86.70
21676;DHT22;10999;51.332;9.458;2023-03-14T06:14:33;9.30;87.40
21676;DHT22;10999;51.332;9.458;2023-03-14T06:16:59;9.20;87.60
21676;DHT22;10999;51.332;9.458;2023-03-14T06:19:26;9.20;88.00
21676;DHT22;10999;51.332;9.458;2023-03-14T06:21:53;9.20;87.00
21676;DHT22;10999;51.332;9.458;2023-03-14T06:24:19;9.20;87.50
21676;DHT22;10999;51.332;9.458;2023-03-14T06:26:46;9.20;87.90
21676;DHT22;10999;51.332;9.458;2023-03-14T06:29:15;9.20;88.30
21676;DHT22;10999;51.332;9.458;2023-03-14T06:31:42;9.20;88.70
21676;DHT22;10999;51.332;9.458;2023-03-14T06:34:08;9.20;88.20
21676;DHT22;10999;51.332;9.458;2023-03-14T06:36:35;9.20;88.10
21676;DHT22;10999;51.332;9.458;2023-03-14T06:39:03;9.30;88.00
21676;DHT22;10999;51.332;9.458;2023-03-14T06:41:29;9.30;87.90
21676;DHT22;10999;51.332;9.458;2023-03-14T06:43:56;9.30;87.90
21676;DHT22;10999;51.332;9.458;2023-03-14T06:46:23;9.30;88.10
21676;DHT22;10999;51.332;9.458;2023-03-14T06:48:49;9.30;87.70
21676;DHT22;10999;51.332;9.458;2023-03-14T06:51:16;9.40;88.00
21676;DHT22;10999;51.332;9.458;2023-03-14T06:53:43;9.40;88.90
21676;DHT22;10999;51.332;9.458;2023-03-14T06:56:09;9.40;88.20
21676;DHT22;10999;51.332;9.458;2023-03-14T06:58:36;9.40;87.90
21676;DHT22;10999;51.332;9.458;2023-03-14T07:01:03;9.40;88.50
21676;DHT22;10999;51.332;9.458;2023-03-14T07:03:30;9.40;88.70
21676;DHT22;10999;51.332;9.458;2023-03-14T07:05:57;9.40;88.60
21676;DHT22;10999;51.332;9.458;2023-03-14T07:08:23;9.50;88.90
21676;DHT22;10999;51.332;9.458;2023-03-14T07:10:50;9.50;89.00
21676;DHT22;10999;51.332;9.458;2023-03-14T07:13:17;9.50;88.90
21676;DHT22;10999;51.332;9.458;2023-03-14T07:15:44;9.60;88.40
21676;DHT22;10999;51.332;9.458;2023-03-14T07:18:11;9.60;87.60
21676;DHT22;10999;51.332;9.458;2023-03-14T07:20:38;9.60;86.80
21676;DHT22;10999;51.332;9.458;2023-03-14T07:23:05;9.70;87.50
21676;DHT22;10999;51.332;9.458;2023-03-14T07:25:31;9.70;88.40
21676;DHT22;10999;51.332;9.458;2023-03-14T07:27:58;9.70;88.00
21676;DHT22;10999;51.332;9.458;2023-03-14T07:30:25;9.70;88.90
21676;DHT22;10999;51.332;9.458;2023-03-14T07:32:51;9.60;89.00
21676;DHT22;10999;51.332;9.458;2023-03-14T07:35:18;9.60;89.30
21676;DHT22;10999;51.332;9.458;2023-03-14T07:37:45;9.70;88.50
21676;DHT22;10999;51.332;9.458;2023-03-14T07:40:12;9.70;87.60
21676;DHT22;10999;51.332;9.458;2023-03-14T07:42:42;9.70;88.10
21676;DHT22;10999;51.332;9.458;2023-03-14T07:45:09;9.70;87.20
21676;DHT22;10999;51.332;9.458;2023-03-14T07:47:38;9.80;86.80
21676;DHT22;10999;51.332;9.458;2023-03-14T07:50:05;9.80;86.30
21676;DHT22;10999;51.332;9.458;2023-03-14T07:52:32;9.80;86.20
21676;DHT22;10999;51.332;9.458;2023-03-14T07:54:59;9.90;86.10
21676;DHT22;10999;51.332;9.458;2023-03-14T07:57:25;9.90;86.90
21676;DHT22;10999;51.332;9.458;2023-03-14T07:59:52;9.90;86.50
21676;DHT22;10999;51.332;9.458;2023-03-14T08:02:19;9.90;87.60
21676;DHT22;10999;51.332;9.458;2023-03-14T08:04:48;9.90;88.40
21676;DHT22;10999;51.332;9.458;2023-03-14T08:07:16;9.90;88.90
21676;DHT22;10999;51.332;9.458;2023-03-14T08:09:42;9.80;88.50
21676;DHT22;10999;51.332;9.458;2023-03-14T08:12:09;9.80;89.80
21676;DHT22;10999;51.332;9.458;2023-03-14T08:14:36;9.80;89.00
21676;DHT22;10999;51.332;9.458;2023-03-14T08:17:02;9.80;90.20
21676;DHT22;10999;51.332;9.458;2023-03-14T08:19:29;9.80;90.70
21676;DHT22;10999;51.332;9.458;2023-03-14T08:21:56;9.80;89.50
21676;DHT22;10999;51.332;9.458;2023-03-14T08:24:23;9.80;89.40
21676;DHT22;10999;51.332;9.458;2023-03-14T08:26:50;9.80;89.40
21676;DHT22;10999;51.332;9.458;2023-03-14T08:29:17;9.80;87.70
21676;DHT22;10999;51.332;9.458;2023-03-14T08:31:43;9.80;88.80
21676;DHT22;10999;51.332;9.458;2023-03-14T08:34:11;9.90;86.70
21676;DHT22;10999;51.332;9.458;2023-03-14T08:36:37;10.00;87.40
21676;DHT22;10999;51.332;9.458;2023-03-14T08:39:04;10.10;88.70
21676;DHT22;10999;51.332;9.458;2023-03-14T08:41:34;10.20;87.10
21676;DHT22;10999;51.332;9.458;2023-03-14T08:44:07;10.20;84.80
21676;DHT22;10999;51.332;9.458;2023-03-14T08:46:34;10.20;84.20
21676;DHT22;10999;51.332;9.458;2023-03-14T08:49:01;10.30;84.40
21676;DHT22;10999;51.332;9.458;2023-03-14T08:51:28;10.40;82.80
21676;DHT22;10999;51.332;9.458;2023-03-14T08:53:55;10.50;83.80
21676;DHT22;10999;51.332;9.458;2023-03-14T08:56:22;10.60;81.60
21676;DHT22;10999;51.332;9.458;2023-03-14T08:58:51;10.70;82.90
21676;DHT22;10999;51.332;9.458;2023-03-14T09:01:18;10.70;80.60
21676;DHT22;10999;51.332;9.458;2023-03-14T09:03:45;10.70;79.40
21676;DHT22;10999;51.332;9.458;2023-03-14T09:06:14;10.70;79.10
21676;DHT22;10999;51.332;9.458;2023-03-14T09:08:44;10.80;80.10
21676;DHT22;10999;51.332;9.458;2023-03-14T09:11:13;10.80;80.10
21676;DHT22;10999;51.332;9.458;2023-03-14T09:13:40;10.70;79.30
21676;DHT22;10999;51.332;9.458;2023-03-14T09:16:07;10.70;78.60
21676;DHT22;10999;51.332;9.458;2023-03-14T09:18:35;10.60;78.30
21676;DHT22;10999;51.332;9.458;2023-03-14T09:21:02;10.60;80.30
21676;DHT22;10999;51.332;9.458;2023-03-14T09:23:29;10.70;80.20
21676;DHT22;10999;51.332;9.458;2023-03-14T09:25:59;10.70;81.90
21676;DHT22;10999;51.332;9.458;2023-03-14T09:28:27;10.80;80.50
21676;DHT22;10999;51.332;9.458;2023-03-14T09:30:53;10.90;79.00
21676;DHT22;10999;51.332;9.458;2023-03-14T09:33:21;10.80;79.90
21676;DHT22;10999;51.332;9.458;2023-03-14T09:35:47;10.90;80.60
21676;DHT22;10999;51.332;9.458;2023-03-14T09:38:14;10.80;80.90
21676;DHT22;10999;51.332;9.458;2023-03-14T09:40:41;10.80;81.80
21676;DHT22;10999;51.332;9.458;2023-03-14T09:43:11;10.70;82.90
21676;DHT22;10999;51.332;9.458;2023-03-14T09:45:41;10.60;84.50
21676;DHT22;10999;51.332;9.458;2023-03-14T09:48:16;10.50;86.80
21676;DHT22;10999;51.332;9.458;2023-03-14T09:50:50;10.50;88.60
21676;DHT22;10999;51.332;9.458;2023-03-14T09:53:22;10.50;89.20
21676;DHT22;10999;51.332;9.458;2023-03-14T09:55:50;10.50;88.80
21676;DHT22;10999;51.332;9.458;2023-03-14T09:58:23;10.50;88.60
21676;DHT22;10999;51.332;9.458;2023-03-14T10:00:53;10.50;89.30
21676;DHT22;10999;51.332;9.458;2023-03-14T10:03:26;10.50;89.30
21676;DHT22;10999;51.332;9.458;2023-03-14T10:05:56;10.60;89.20
21676;DHT22;10999;51.332;9.458;2023-03-14T10:08:22;10.60;89.00
21676;DHT22;10999;51.332;9.458;2023-03-14T10:10:49;10.60;88.60
21676;DHT22;10999;51.332;9.458;2023-03-14T10:13:21;10.70;90.40
21676;DHT22;10999;51.332;9.458;2023-03-14T10:16:03;10.70;89.20
21676;DHT22;10999;51.332;9.458;2023-03-14T10:18:31;10.60;90.50
21676;DHT22;10999;51.332;9.458;2023-03-14T10:21:26;10.60;89.90
21676;DHT22;10999;51.332;9.458;2023-03-14T10:23:54;10.50;89.60
21676;DHT22;10999;51.332;9.458;2023-03-14T10:26:27;10.50;90.10
21676;DHT22;10999;51.332;9.458;2023-03-14T10:29:08;10.50;90.90
21676;DHT22;10999;51.332;9.458;2023-03-14T10:31:57;10.50;91.80
21676;DHT22;10999;51.332;9.458;2023-03-14T10:34:30;10.60;91.00
21676;DHT22;10999;51.332;9.458;2023-03-14T10:37:05;10.50;90.60
21676;DHT22;10999;51.332;9.458;2023-03-14T10:39:52;10.60;90.50
21676;DHT22;10999;51.332;9.458;2023-03-14T10:42:25;10.70;90.80
21676;DHT22;10999;51.332;9.458;2023-03-14T10:44:58;10.60;90.00
21676;DHT22;10999;51.332;9.458;2023-03-14T10:47:27;10.60;90.60
21676;DHT22;10999;51.332;9.458;2023-03-14T10:49:57;10.70;90.50
21676;DHT22;10999;51.332;9.458;2023-03-14T10:52:47;11.00;91.30
21676;DHT22;10999;51.332;9.458;2023-03-14T10:55:40;11.60;89.40
21676;DHT22;10999;51.332;9.458;2023-03-14T10:58:21;11.60;83.60
21676;DHT22;10999;51.332;9.458;2023-03-14T11:00:52;11.80;83.90
21676;DHT22;10999;51.332;9.458;2023-03-14T11:03:20;12.10;86.80
21676;DHT22;10999;51.332;9.458;2023-03-14T11:06:01;12.40;82.20
21676;DHT22;10999;51.332;9.458;2023-03-14T11:11:25;12.60;80.10
21676;DHT22;10999;51.332;9.458;2023-03-14T11:14:08;12.60;77.10
21676;DHT22;10999;51.332;9.458;2023-03-14T11:16:50;12.50;77.20
21676;DHT22;10999;51.332;9.458;2023-03-14T11:23:03;12.30;78.00
21676;DHT22;10999;51.332;9.458;2023-03-14T11:25:18;12.30;77.40
21676;DHT22;10999;51.332;9.458;2023-03-14T11:33:22;12.70;76.50
21676;DHT22;10999;51.332;9.458;2023-03-14T11:36:11;12.80;72.90
21676;DHT22;10999;51.332;9.458;2023-03-14T11:38:47;12.70;70.40
21676;DHT22;10999;51.332;9.458;2023-03-14T11:41:37;12.70;71.70
21676;DHT22;10999;51.332;9.458;2023-03-14T11:47:10;12.70;72.90
21676;DHT22;10999;51.332;9.458;2023-03-14T11:52:43;12.20;80.70
21676;DHT22;10999;51.332;9.458;2023-03-14T11:55:31;11.90;83.80
21676;DHT22;10999;51.332;9.458;2023-03-14T11:58:03;11.70;87.20
21676;DHT22;10999;51.332;9.458;2023-03-14T12:00:38;11.60;88.90
21676;DHT22;10999;51.332;9.458;2023-03-14T12:08:48;11.20;90.50
21676;DHT22;10999;51.332;9.458;2023-03-14T12:11:32;11.00;91.70
21676;DHT22;10999;51.332;9.458;2023-03-14T12:14:00;10.90;93.80
21676;DHT22;10999;51.332;9.458;2023-03-14T12:16:33;10.80;94.80
21676;DHT22;10999;51.332;9.458;2023-03-14T12:24:31;9.60;87.10
21676;DHT22;10999;51.332;9.458;2023-03-14T12:27:01;9.30;89.00
21676;DHT22;10999;51.332;9.458;2023-03-14T12:29:29;9.20;90.70
21676;DHT22;10999;51.332;9.458;2023-03-14T12:34:33;8.90;91.00
21676;DHT22;10999;51.332;9.458;2023-03-14T12:37:26;8.80;90.30
21676;DHT22;10999;51.332;9.458;2023-03-14T12:40:06;8.70;90.80
21676;DHT22;10999;51.332;9.458;2023-03-14T12:42:38;8.70;90.80
21676;DHT22;10999;51.332;9.458;2023-03-14T12:45:24;8.60;89.90
21676;DHT22;10999;51.332;9.458;2023-03-14T12:48:10;8.50;88.50
21676;DHT22;10999;51.332;9.458;2023-03-14T12:50:47;8.30;88.90
21676;DHT22;10999;51.332;9.458;2023-03-14T12:56:02;8.20;89.10
21676;DHT22;10999;51.332;9.458;2023-03-14T12:58:38;8.10;89.30
21676;DHT22;10999;51.332;9.458;2023-03-14T13:01:06;8.00;90.20
21676;DHT22;10999;51.332;9.458;2023-03-14T13:03:47;7.90;91.30
21676;DHT22;10999;51.332;9.458;2023-03-14T13:12:11;7.80;90.70
21676;DHT22;10999;51.332;9.458;2023-03-14T13:14:49;7.80;91.00
21676;DHT22;10999;51.332;9.458;2023-03-14T13:17:32;7.60;89.40
21676;DHT22;10999;51.332;9.458;2023-03-14T13:20:10;7.40;89.20
21676;DHT22;10999;51.332;9.458;2023-03-14T13:22:38;7.10;88.20
21676;DHT22;10999;51.332;9.458;2023-03-14T13:25:07;6.80;85.60
21676;DHT22;10999;51.332;9.458;2023-03-14T13:27:36;6.60;87.20
21676;DHT22;10999;51.332;9.458;2023-03-14T13:30:19;6.30;88.80
21676;DHT22;10999;51.332;9.458;2023-03-14T13:32:47;6.20;88.40
21676;DHT22;10999;51.332;9.458;2023-03-14T13:35:16;6.00;87.60
21676;DHT22;10999;51.332;9.458;2023-03-14T13:37:43;5.80;88.80
21676;DHT22;10999;51.332;9.458;2023-03-14T13:40:46;5.70;90.60
21676;DHT22;10999;51.332;9.458;2023-03-14T13:48:16;5.20;93.30
21676;DHT22;10999;51.332;9.458;2023-03-14T13:50:50;5.10;91.90
21676;DHT22;10999;51.332;9.458;2023-03-14T13:53:18;4.80;88.60
21676;DHT22;10999;51.332;9.458;2023-03-14T13:55:45;4.70;87.20
21676;DHT22;10999;51.332;9.458;2023-03-14T13:58:39;4.60;88.90
21676;DHT22;10999;51.332;9.458;2023-03-14T14:01:14;4.60;89.20
21676;DHT22;10999;51.332;9.458;2023-03-14T14:03:45;4.70;90.20
21676;DHT22;10999;51.332;9.458;2023-03-14T14:06:32;4.70;90.10
21676;DHT22;10999;51.332;9.458;2023-03-14T14:09:02;4.70;90.00
21676;DHT22;10999;51.332;9.458;2023-03-14T14:14:37;4.90;88.90
21676;DHT22;10999;51.332;9.458;2023-03-14T14:17:11;5.00;89.00
21676;DHT22;10999;51.332;9.458;2023-03-14T14:19:39;5.20;87.20
21676;DHT22;10999;51.332;9.458;2023-03-14T14:22:08;5.30;85.30
21676;DHT22;10999;51.332;9.458;2023-03-14T14:24:37;5.50;84.20
21676;DHT22;10999;51.332;9.458;2023-03-14T14:27:16;5.60;83.40
21676;DHT22;10999;51.332;9.458;2023-03-14T14:30:04;5.60;80.40
21676;DHT22;10999;51.332;9.458;2023-03-14T14:32:39;5.60;80.70
21676;DHT22;10999;51.332;9.458;2023-03-14T14:35:10;5.60;80.90
21676;DHT22;10999;51.332;9.458;2023-03-14T14:37:42;5.50;79.00
21676;DHT22;10999;51.332;9.458;2023-03-14T14:40:20;5.50;79.40
21676;DHT22;10999;51.332;9.458;2023-03-14T14:42:47;5.50;81.00
21676;DHT22;10999;51.332;9.458;2023-03-14T14:45:20;5.50;81.70
21676;DHT22;10999;51.332;9.458;2023-03-14T14:50:34;5.50;82.20
21676;DHT22;10999;51.332;9.458;2023-03-14T14:56:16;5.40;81.30
21676;DHT22;10999;51.332;9.458;2023-03-14T14:58:46;5.50;82.30
21676;DHT22;10999;51.332;9.458;2023-03-14T15:01:23;5.50;82.30
21676;DHT22;10999;51.332;9.458;2023-03-14T15:03:51;5.60;82.70
21676;DHT22;10999;51.332;9.458;2023-03-14T15:06:19;5.60;81.40
21676;DHT22;10999;51.332;9.458;2023-03-14T15:08:47;5.60;78.60
21676;DHT22;10999;51.332;9.458;2023-03-14T15:11:23;5.70;81.40
21676;DHT22;10999;51.332;9.458;2023-03-14T15:13:51;5.90;81.60
21676;DHT22;10999;51.332;9.458;2023-03-14T15:16:25;6.00;82.50
21676;DHT22;10999;51.332;9.458;2023-03-14T15:18:55;5.90;79.60
21676;DHT22;10999;51.332;9.458;2023-03-14T15:21:23;6.00;81.30
21676;DHT22;10999;51.332;9.458;2023-03-14T15:23:50;5.80;79.70
21676;DHT22;10999;51.332;9.458;2023-03-14T15:26:23;5.60;80.50
21676;DHT22;10999;51.332;9.458;2023-03-14T15:28:50;5.50;83.70
21676;DHT22;10999;51.332;9.458;2023-03-14T15:31:18;5.40;77.50
21676;DHT22;10999;51.332;9.458;2023-03-14T15:33:45;5.20;78.50
21676;DHT22;10999;51.332;9.458;2023-03-14T15:36:30;5.20;77.20
21676;DHT22;10999;51.332;9.458;2023-03-14T15:38:57;5.00;74.80
21676;DHT22;10999;51.332;9.458;2023-03-14T15:41:27;4.90;74.80
21676;DHT22;10999;51.332;9.458;2023-03-14T15:43:55;4.90;76.10
21676;DHT22;10999;51.332;9.458;2023-03-14T15:46:22;4.90;75.30
21676;DHT22;10999;51.332;9.458;2023-03-14T15:48:50;5.00;76.90
21676;DHT22;10999;51.332;9.458;2023-03-14T15:51:18;4.90;76.10
21676;DHT22;10999;51.332;9.458;2023-03-14T15:53:45;5.10;75.90
21676;DHT22;10999;51.332;9.458;2023-03-14T15:56:15;5.10;77.40
21676;DHT22;10999;51.332;9.458;2023-03-14T15:58:43;5.20;77.40
21676;DHT22;10999;51.332;9.458;2023-03-14T16:01:14;5.10;76.90
21676;DHT22;10999;51.332;9.458;2023-03-14T16:03:46;5.10;76.20
21676;DHT22;10999;51.332;9.458;2023-03-14T16:06:13;5.10;77.30
21676;DHT22;10999;51.332;9.458;2023-03-14T16:08:41;5.10;76.60
21676;DHT22;10999;51.332;9.458;2023-03-14T16:11:10;5.10;77.40
21676;DHT22;10999;51.332;9.458;2023-03-14T16:13:37;5.00;77.10
21676;DHT22;10999;51.332;9.458;2023-03-14T16:16:05;5.00;78.60
21676;DHT22;10999;51.332;9.458;2023-03-14T16:18:34;5.00;78.10
21676;DHT22;10999;51.332;9.458;2023-03-14T16:21:04;5.00;78.20
21676;DHT22;10999;51.332;9.458;2023-03-14T16:23:34;5.00;78.20
21676;DHT22;10999;51.332;9.458;2023-03-14T16:26:10;5.00;77.40
21676;DHT22;10999;51.332;9.458;2023-03-14T16:28:38;5.10;77.60
21676;DHT22;10999;51.332;9.458;2023-03-14T16:31:08;5.20;75.30
21676;DHT22;10999;51.332;9.458;2023-03-14T16:33:36;5.20;77.40
21676;DHT22;10999;51.332;9.458;2023-03-14T16:36:05;5.20;76.20
21676;DHT22;10999;51.332;9.458;2023-03-14T16:38:35;5.30;76.80
21676;DHT22;10999;51.332;9.458;2023-03-14T16:41:05;5.30;76.40
21676;DHT22;10999;51.332;9.458;2023-03-14T16:43:32;5.30;76.70
21676;DHT22;10999;51.332;9.458;2023-03-14T16:46:03;5.30;77.70
21676;DHT22;10999;51.332;9.458;2023-03-14T16:48:30;5.30;77.30
21676;DHT22;10999;51.332;9.458;2023-03-14T16:50:57;5.30;77.20
21676;DHT22;10999;51.332;9.458;2023-03-14T16:53:25;5.30;77.10
21676;DHT22;10999;51.332;9.458;2023-03-14T16:55:55;5.20;76.10
21676;DHT22;10999;51.332;9.458;2023-03-14T16:58:22;5.20;75.50